Time;durP1;ratioP1;P1;durP2;ratioP2;P2;SDS_P1;SDS_P2;PMS_P1;PMS_P2;Temp;Humidity;BMP_temperature;BMP_pressure;BME280_temperature;BME280_humidity;BME280_pressure;Samples;Min_cycle;Max_cycle;Signal;HPM_P1;HPM_P2
2022/05/04 00:00:59;;;;;;;4.28;1.42;;;;;;;8.49;74.95;102132.25;5052046;28;20413;-33
2022/05/04 00:03:26;;;;;;;4.45;1.83;;;;;;;8.49;75.41;102135.03;5049227;28;20086;-32
2022/05/04 00:05:54;;;;;;;3.92;1.58;;;;;;;8.49;75.48;102137.00;5051043;28;20048;-35
2022/05/04 00:08:22;;;;;;;5.18;1.70;;;;;;;8.48;75.50;102130.59;5048772;28;20045;-31
2022/05/04 00:10:49;;;;;;;5.40;1.70;;;;;;;8.48;75.60;102135.31;5049705;28;20041;-28
2022/05/04 00:13:17;;;;;;;5.47;1.90;;;;;;;8.48;75.60;102133.38;5068734;28;20049;-28
2022/05/04 00:15:46;;;;;;;5.20;1.80;;;;;;;8.47;75.46;102130.84;5060162;28;20052;-31
2022/05/04 00:18:14;;;;;;;6.32;2.28;;;;;;;8.46;75.56;102132.78;5054388;28;20076;-30
2022/05/04 00:20:42;;;;;;;5.95;1.63;;;;;;;8.48;75.84;102133.38;5060703;28;20512;-35
2022/05/04 00:23:09;;;;;;;3.67;1.25;;;;;;;8.49;75.67;102134.19;5052190;28;20051;-27
2022/05/04 00:25:38;;;;;;;6.30;2.17;;;;;;;8.48;75.77;102136.16;5061010;28;20049;-34
2022/05/04 00:28:06;;;;;;;4.90;1.85;;;;;;;8.48;76.19;102135.31;5057735;28;20061;-34
2022/05/04 00:30:34;;;;;;;6.50;1.85;;;;;;;8.47;76.35;102136.41;5047315;28;20046;-37
2022/05/04 00:33:04;;;;;;;5.85;2.20;;;;;;;8.47;76.27;102134.47;5056073;28;20401;-32
2022/05/04 00:35:32;;;;;;;3.53;1.30;;;;;;;8.46;76.63;102132.78;5047292;28;20045;-35
2022/05/04 00:37:59;;;;;;;4.68;1.50;;;;;;;8.46;76.45;102132.78;5056121;28;20056;-34
2022/05/04 00:40:27;;;;;;;4.35;1.50;;;;;;;8.47;76.68;102137.25;5048029;28;20047;-32
2022/05/04 00:42:55;;;;;;;5.90;1.70;;;;;;;8.46;76.47;102135.56;5052468;28;20037;-31
2022/05/04 00:45:23;;;;;;;3.55;1.60;;;;;;;8.47;77.05;102136.41;5048973;28;20041;-30
2022/05/04 00:47:51;;;;;;;3.75;1.65;;;;;;;8.45;76.68;102133.88;5043310;28;20052;-35
2022/05/04 00:50:20;;;;;;;2.42;1.13;;;;;;;8.47;76.82;102139.19;5058324;28;20487;-39
2022/05/04 00:52:49;;;;;;;5.55;1.95;;;;;;;8.46;76.84;102127.22;5056642;28;20103;-32
2022/05/04 00:55:20;;;;;;;6.88;2.40;;;;;;;8.46;77.33;102130.00;5062553;28;20057;-35
2022/05/04 01:00:35;;;;;;;4.18;1.35;;;;;;;8.42;77.54;102127.97;5048901;28;20056;-32
2022/05/04 01:03:03;;;;;;;5.45;1.50;;;;;;;8.42;77.36;102130.75;5051616;28;20482;-33
2022/05/04 01:05:32;;;;;;;5.60;1.60;;;;;;;8.41;77.60;102123.50;5058804;28;20045;-26
2022/05/04 01:08:00;;;;;;;4.13;1.48;;;;;;;8.40;77.68;102127.38;5057213;28;20049;-30
2022/05/04 01:10:28;;;;;;;6.28;1.83;;;;;;;8.39;77.76;102123.78;5057941;28;20057;-35
2022/05/04 01:12:56;;;;;;;4.57;1.70;;;;;;;8.37;77.87;102117.63;5057716;28;20047;-34
2022/05/04 01:15:25;;;;;;;5.47;2.50;;;;;;;8.35;78.07;102113.41;5061855;28;20067;-36
2022/05/04 01:17:53;;;;;;;5.05;1.80;;;;;;;8.34;77.75;102120.06;5045252;28;20064;-34
2022/05/04 01:20:24;;;;;;;4.53;1.55;;;;;;;8.33;77.67;102119.22;5053230;28;20050;-32
2022/05/04 01:22:55;;;;;;;5.47;1.80;;;;;;;8.32;77.32;102125.00;5047057;28;20041;-33
2022/05/04 01:25:23;;;;;;;5.53;1.92;;;;;;;8.32;77.54;102123.09;5072904;28;20132;-28
2022/05/04 01:27:50;;;;;;;4.95;1.90;;;;;;;8.32;77.13;102116.66;5073836;28;20048;-32
2022/05/04 01:30:18;;;;;;;5.68;1.65;;;;;;;8.29;77.50;102110.50;5059556;28;20476;-35
2022/05/04 01:32:46;;;;;;;4.80;1.58;;;;;;;8.28;77.33;102107.97;5046225;28;20051;-38
2022/05/04 01:35:14;;;;;;;5.40;1.40;;;;;;;8.28;76.96;102113.53;5055139;28;20045;-34
2022/05/04 01:37:42;;;;;;;4.45;1.30;;;;;;;8.30;77.27;102105.78;5046821;28;20128;-35
2022/05/04 01:40:11;;;;;;;3.40;1.70;;;;;;;8.30;77.27;102105.78;5054357;28;20053;-34
2022/05/04 01:42:39;;;;;;;5.03;1.70;;;;;;;8.26;76.93;102108.22;5046969;28;20407;-39
2022/05/04 01:45:08;;;;;;;4.75;1.60;;;;;;;8.24;76.85;102104.00;5054438;28;20048;-39
2022/05/04 01:47:38;;;;;;;4.00;1.42;;;;;;;8.23;76.93;102099.53;5040368;28;20060;-34
2022/05/04 01:50:07;;;;;;;4.15;1.38;;;;;;;8.21;77.04;102102.56;5054877;28;20036;-31
2022/05/04 01:52:34;;;;;;;8.73;2.08;;;;;;;8.20;76.87;102100.88;5058225;28;20090;-32
2022/05/04 01:55:02;;;;;;;3.25;1.30;;;;;;;8.18;76.57;102100.31;5057312;28;20506;-30
2022/05/04 01:57:31;;;;;;;4.28;1.15;;;;;;;8.17;76.48;102101.41;5061189;28;20056;-34
2022/05/04 01:59:59;;;;;;;2.13;0.95;;;;;;;8.16;76.58;102094.16;5054644;28;20049;-33
2022/05/04 02:02:29;;;;;;;5.75;1.92;;;;;;;8.16;76.56;102096.09;5046340;28;20045;-29
2022/05/04 02:04:58;;;;;;;4.00;1.52;;;;;;;8.13;76.53;102091.03;5055304;28;20472;-35
2022/05/04 02:07:26;;;;;;;3.70;1.40;;;;;;;8.09;76.49;102093.47;5057104;28;20052;-28
2022/05/04 02:09:55;;;;;;;5.03;1.60;;;;;;;8.07;76.40;102095.66;5057867;28;20053;-29
2022/05/04 02:12:22;;;;;;;3.88;1.23;;;;;;;8.05;76.56;102095.06;5056411;28;20047;-31
2022/05/04 02:14:52;;;;;;;2.70;1.08;;;;;;;8.04;76.07;102095.31;5046620;28;20041;-35
2022/05/04 02:17:20;;;;;;;2.65;1.10;;;;;;;8.02;76.27;102094.72;5050551;28;20055;-32
2022/05/04 02:19:47;;;;;;;4.53;1.27;;;;;;;8.00;75.85;102094.13;5045911;28;20057;-27
2022/05/04 02:22:16;;;;;;;4.28;1.73;;;;;;;7.99;76.26;102103.59;5053367;28;20444;-33
2022/05/04 02:24:44;;;;;;;4.13;1.25;;;;;;;7.97;75.97;102092.72;5046310;28;20049;-29
2022/05/04 02:27:11;;;;;;;3.60;1.10;;;;;;;7.96;75.92;102091.03;5064606;28;20390;-33
2022/05/04 02:29:39;;;;;;;2.63;1.00;;;;;;;7.95;76.37;102097.69;5055740;28;20045;-32
2022/05/04 02:32:09;;;;;;;4.93;1.10;;;;;;;7.95;76.43;102087.44;5054230;28;20049;-35
2022/05/04 02:37:54;;;;;;;5.13;1.50;;;;;;;7.92;76.21;102090.69;5046020;28;20136;-30
2022/05/04 02:40:12;;;;;;;4.72;1.45;;;;;;;7.84;76.50;102084.69;5045600;28;20041;-28
2022/05/04 02:42:40;;;;;;;2.70;1.23;;;;;;;7.81;76.39;102086.03;5053125;28;20045;-33
2022/05/04 02:45:08;;;;;;;2.53;1.05;;;;;;;7.81;76.31;102085.19;5045872;28;20060;-33
2022/05/04 02:47:38;;;;;;;4.80;1.50;;;;;;;7.78;76.45;102072.69;5053724;28;20049;-34
2022/05/04 02:50:10;;;;;;;2.08;0.95;;;;;;;7.73;76.72;102069.81;5044932;28;20119;-31
2022/05/04 02:52:38;;;;;;;2.78;1.10;;;;;;;7.70;76.80;102067.53;5053425;28;20425;-32
2022/05/04 02:55:07;;;;;;;1.85;0.70;;;;;;;7.67;76.73;102065.25;5045521;28;20049;-38
2022/05/04 02:57:35;;;;;;;2.80;1.10;;;;;;;7.63;76.88;102072.38;5053234;28;20040;-30
2022/05/04 03:00:03;;;;;;;2.72;1.00;;;;;;;7.58;76.75;102063.97;5045502;28;20044;-29
2022/05/04 03:02:31;;;;;;;2.05;1.05;;;;;;;7.54;76.70;102066.41;5050129;28;20128;-31
2022/05/04 03:05:02;;;;;;;2.72;0.98;;;;;;;7.50;76.88;102064.38;5045876;28;20050;-32
2022/05/04 03:07:30;;;;;;;4.60;1.15;;;;;;;7.47;77.04;102060.16;5041164;28;20517;-30
2022/05/04 03:09:59;;;;;;;3.28;1.02;;;;;;;7.44;77.16;102063.44;5057039;28;20073;-32
2022/05/04 03:12:27;;;;;;;2.20;1.20;;;;;;;7.39;77.18;102062.50;5037301;28;20044;-36
2022/05/04 03:14:55;;;;;;;2.95;0.95;;;;;;;7.37;77.42;102056.34;5059780;28;20049;-33
2022/05/04 03:17:23;;;;;;;2.50;1.13;;;;;;;7.33;77.99;102071.81;5053475;28;20136;-30
2022/05/04 03:19:51;;;;;;;2.90;1.10;;;;;;;7.28;77.61;102064.22;5055817;28;20044;-29
2022/05/04 03:22:20;;;;;;;4.03;1.38;;;;;;;7.25;78.04;102061.94;5054848;28;20049;-30
2022/05/04 03:24:48;;;;;;;1.80;0.85;;;;;;;7.22;78.22;102063.28;5054214;28;20119;-34
2022/05/04 03:27:16;;;;;;;2.85;1.00;;;;;;;7.20;78.46;102053.50;5047332;28;20052;-37
2022/05/04 03:29:44;;;;;;;2.75;1.00;;;;;;;7.18;78.81;102059.34;5051927;28;20134;-34
2022/05/04 03:32:12;;;;;;;1.63;0.80;;;;;;;7.15;78.62;102048.72;5056272;28;20068;-32
2022/05/04 03:34:39;;;;;;;2.95;1.17;;;;;;;7.14;78.48;102047.03;5052876;28;20045;-30
2022/05/04 03:37:08;;;;;;;2.47;1.10;;;;;;;7.10;79.13;102051.38;5061358;28;20139;-36
2022/05/04 03:39:37;;;;;;;4.13;1.25;;;;;;;7.07;79.34;102040.78;5052582;28;20044;-30
2022/05/04 03:42:05;;;;;;;2.92;1.35;;;;;;;7.03;79.50;102049.84;5059542;28;20044;-36
2022/05/04 03:44:33;;;;;;;3.47;1.20;;;;;;;6.96;79.84;102047.22;5053596;28;20040;-31
2022/05/04 03:47:00;;;;;;;3.38;1.20;;;;;;;6.93;80.45;102049.63;5060509;28;20127;-29
2022/05/04 03:49:28;;;;;;;3.80;1.40;;;;;;;6.88;80.57;102054.00;5052834;28;20033;-30
2022/05/04 03:51:56;;;;;;;2.88;1.15;;;;;;;6.85;81.11;102045.31;5061640;28;20049;-31
2022/05/04 03:54:25;;;;;;;2.05;1.10;;;;;;;6.83;81.17;102050.25;5053592;28;20049;-31
2022/05/04 03:56:54;;;;;;;3.53;1.33;;;;;;;6.79;81.63;102052.69;5048479;28;20053;-36
2022/05/04 03:59:21;;;;;;;2.47;1.23;;;;;;;6.76;81.58;102049.56;5052152;28;20042;-31
2022/05/04 04:01:49;;;;;;;2.50;1.10;;;;;;;6.74;81.52;102051.75;5044159;28;20076;-25
2022/05/04 04:04:17;;;;;;;3.00;1.35;;;;;;;6.71;82.20;102055.00;5050877;28;20049;-25
2022/05/04 04:06:44;;;;;;;4.15;1.33;;;;;;;6.68;82.31;102047.16;5047685;28;20525;-34
2022/05/04 04:09:12;;;;;;;2.67;1.00;;;;;;;6.66;82.57;102052.09;5056535;28;20053;-29
2022/05/04 04:11:40;;;;;;;3.58;1.20;;;;;;;6.62;82.92;102046.19;5047414;28;20045;-29
2022/05/04 04:14:09;;;;;;;4.35;1.20;;;;;;;6.59;83.08;102049.50;5052147;28;20400;-34
2022/05/04 04:16:37;;;;;;;3.00;1.55;;;;;;;6.56;83.19;102053.59;5060883;28;20044;-35
2022/05/04 04:19:04;;;;;;;3.05;1.33;;;;;;;6.54;83.44;102047.44;5045676;28;20140;-36
2022/05/04 04:24:19;;;;;;;2.90;1.33;;;;;;;6.51;83.53;102047.06;5047002;28;20050;-31
2022/05/04 04:26:47;;;;;;;3.80;1.30;;;;;;;6.49;83.46;102041.78;5049029;28;20068;-29
2022/05/04 04:29:16;;;;;;;3.50;1.40;;;;;;;6.47;83.15;102045.88;5047758;28;20045;-35
2022/05/04 04:31:44;;;;;;;2.65;1.25;;;;;;;6.45;83.49;102050.81;5070688;28;20489;-34
2022/05/04 04:34:12;;;;;;;3.45;1.40;;;;;;;6.43;83.74;102045.50;5059587;28;20060;-29
2022/05/04 04:36:40;;;;;;;2.92;1.15;;;;;;;6.40;83.87;102051.53;5050868;28;20048;-32
2022/05/04 04:39:08;;;;;;;3.30;1.40;;;;;;;6.37;84.24;102049.28;5073827;28;20158;-32
2022/05/04 04:41:36;;;;;;;4.00;1.48;;;;;;;6.36;84.24;102052.28;5073061;28;20056;-35
2022/05/04 04:44:04;;;;;;;3.72;1.52;;;;;;;6.34;84.66;102060.00;5073135;28;20066;-30
2022/05/04 04:46:33;;;;;;;3.65;1.30;;;;;;;6.32;84.83;102054.69;5073184;28;20059;-33
2022/05/04 04:49:01;;;;;;;3.45;1.10;;;;;;;6.30;85.14;102053.25;5072590;28;20071;-29
2022/05/04 04:51:29;;;;;;;2.88;1.00;;;;;;;6.29;84.98;102059.88;5073159;28;20510;-32
2022/05/04 04:53:56;;;;;;;3.08;1.00;;;;;;;6.29;85.15;102062.63;5073429;28;20063;-27
2022/05/04 04:56:24;;;;;;;2.72;1.10;;;;;;;6.28;85.42;102063.72;5072636;28;20470;-29
2022/05/04 04:58:52;;;;;;;3.03;1.42;;;;;;;6.27;85.80;102062.88;5073117;28;20040;-36
2022/05/04 05:01:19;;;;;;;5.25;1.48;;;;;;;6.27;85.95;102062.88;5057365;28;20056;-31
2022/05/04 05:03:48;;;;;;;2.45;1.33;;;;;;;6.28;86.21;102059.03;5056959;28;20041;-32
2022/05/04 05:06:18;;;;;;;3.58;1.45;;;;;;;6.29;86.33;102060.72;5055705;28;20053;-29
2022/05/04 05:08:48;;;;;;;3.35;1.48;;;;;;;6.31;86.45;102064.09;5058241;28;20636;-33
2022/05/04 05:11:15;;;;;;;2.75;1.38;;;;;;;6.33;86.78;102067.47;5054458;28;20053;-34
2022/05/04 05:16:25;;;;;;;2.65;1.50;;;;;;;6.36;87.81;102055.91;5055167;28;20055;-32
2022/05/04 05:18:54;;;;;;;5.20;1.88;;;;;;;6.40;87.95;102059.00;5072307;28;20128;-33
2022/05/04 05:21:22;;;;;;;4.47;1.77;;;;;;;6.43;88.15;102058.53;5072678;28;20420;-34
2022/05/04 05:23:50;;;;;;;3.30;1.60;;;;;;;6.46;88.31;102055.28;5071790;28;20121;-32
2022/05/04 05:26:17;;;;;;;3.65;1.67;;;;;;;6.50;88.86;102062.03;5072730;28;20048;-34
2022/05/04 05:28:47;;;;;;;5.82;1.98;;;;;;;6.55;89.03;102062.16;5070610;28;20577;-30
2022/05/04 05:31:15;;;;;;;4.78;2.10;;;;;;;6.60;89.69;102059.47;5071803;28;20048;-33
2022/05/04 05:33:45;;;;;;;5.82;2.53;;;;;;;6.66;90.02;102066.81;5050983;28;20053;-34
2022/05/04 05:36:14;;;;;;;4.35;1.88;;;;;;;6.71;89.66;102063.31;5052386;28;20079;-34
2022/05/04 05:38:42;;;;;;;4.95;2.47;;;;;;;6.77;89.31;102054.03;5052110;28;20135;-36
2022/05/04 05:41:09;;;;;;;6.32;2.40;;;;;;;6.84;89.44;102054.72;5052365;28;20458;-32
2022/05/04 05:43:37;;;;;;;8.15;2.60;;;;;;;6.91;89.37;102058.22;5052569;28;20056;-32
2022/05/04 05:46:05;;;;;;;6.45;2.10;;;;;;;6.97;88.55;102054.47;5051440;28;20053;-32
2022/05/04 05:48:33;;;;;;;5.53;1.92;;;;;;;7.04;88.00;102057.06;5052048;28;20095;-29
2022/05/04 05:51:04;;;;;;;5.00;1.80;;;;;;;7.12;87.78;102063.09;5052235;28;20057;-28
2022/05/04 05:53:33;;;;;;;4.97;1.73;;;;;;;7.18;87.33;102056.56;5051471;28;20081;-31
2022/05/04 05:56:01;;;;;;;3.83;1.40;;;;;;;7.26;86.64;102067.25;5051470;28;20069;-30
2022/05/04 05:58:29;;;;;;;5.47;1.70;;;;;;;7.35;85.54;102066.88;5051988;28;20083;-33
2022/05/04 06:00:57;;;;;;;3.42;1.60;;;;;;;7.44;85.05;102068.97;5050891;28;20059;-31
2022/05/04 06:03:25;;;;;;;3.03;1.40;;;;;;;7.53;83.92;102059.16;5065934;28;20585;-36
2022/05/04 06:05:52;;;;;;;5.20;1.63;;;;;;;7.63;83.49;102061.25;5051209;28;20048;-29
2022/05/04 06:08:20;;;;;;;3.55;1.83;;;;;;;7.72;82.74;102064.50;5051030;28;20053;-29
2022/05/04 06:10:49;;;;;;;7.10;2.22;;;;;;;7.83;82.08;102066.34;5051205;28;20211;-29
2022/05/04 06:13:18;;;;;;;5.43;1.90;;;;;;;7.94;82.37;102065.44;5050869;28;20041;-36
2022/05/04 06:15:46;;;;;;;4.15;1.50;;;;;;;8.08;81.77;102063.16;5052888;28;20045;-33
2022/05/04 06:18:14;;;;;;;4.88;1.48;;;;;;;8.17;80.20;102067.22;5052917;28;20057;-31
2022/05/04 06:20:41;;;;;;;3.08;1.30;;;;;;;8.27;79.87;102062.63;5051419;28;20057;-34
2022/05/04 06:23:09;;;;;;;4.65;1.70;;;;;;;8.40;78.51;102067.03;5052507;28;20143;-31
2022/05/04 06:25:37;;;;;;;3.40;1.25;;;;;;;8.57;78.23;102076.22;5052656;28;20045;-32
2022/05/04 06:28:06;;;;;;;3.60;1.48;;;;;;;8.84;77.37;102067.09;5052075;28;20052;-34
2022/05/04 06:36:06;;;;;;;3.72;1.63;;;;;;;10.06;73.04;102072.03;5071610;28;20055;-35
2022/05/04 06:38:33;;;;;;;4.55;1.30;;;;;;;10.60;71.83;102063.50;5072484;28;20067;-28
2022/05/04 06:41:03;;;;;;;5.68;1.92;;;;;;;11.22;71.09;102063.53;5072019;28;20076;-35
2022/05/04 06:43:32;;;;;;;5.60;1.77;;;;;;;11.96;69.15;102060.38;5071479;28;20044;-36
2022/05/04 06:46:01;;;;;;;6.43;2.15;;;;;;;12.68;66.04;102067.56;5071987;28;20045;-29
2022/05/04 06:48:29;;;;;;;4.22;1.70;;;;;;;13.16;63.64;102067.16;5071532;28;20059;-29
2022/05/04 06:50:56;;;;;;;5.85;1.77;;;;;;;13.90;62.51;102068.94;5072195;28;20044;-30
2022/05/04 06:53:24;;;;;;;6.35;1.48;;;;;;;14.75;59.58;102066.50;5072284;28;20056;-34
2022/05/04 06:55:52;;;;;;;3.83;1.40;;;;;;;15.45;56.75;102067.56;5071269;28;20062;-33
2022/05/04 06:58:20;;;;;;;5.75;1.60;;;;;;;16.14;54.02;102062.31;5072499;28;20044;-37
2022/05/04 07:00:49;;;;;;;6.05;1.70;;;;;;;16.58;51.28;102067.47;5071553;28;20498;-34
2022/05/04 07:03:17;;;;;;;6.78;1.80;;;;;;;16.87;51.03;102064.38;5071223;28;20060;-34
2022/05/04 07:05:44;;;;;;;5.60;1.50;;;;;;;17.26;49.72;102066.66;5071991;28;20044;-33
2022/05/04 07:08:12;;;;;;;5.25;1.42;;;;;;;17.72;49.02;102062.84;5071008;28;20199;-30
2022/05/04 07:10:41;;;;;;;5.43;1.48;;;;;;;18.21;46.99;102059.91;5071015;28;20057;-35
2022/05/04 07:13:09;;;;;;;3.15;1.17;;;;;;;18.52;45.35;102059.94;5071682;28;20524;-31
2022/05/04 07:15:37;;;;;;;6.00;1.67;;;;;;;18.92;44.57;102058.03;5070744;28;20047;-33
2022/05/04 07:18:06;;;;;;;5.05;1.50;;;;;;;19.39;43.44;102057.47;5044240;28;20524;-31
2022/05/04 07:20:34;;;;;;;5.03;1.40;;;;;;;19.84;42.77;102058.06;5042642;28;20052;-35
2022/05/04 07:23:02;;;;;;;3.30;1.02;;;;;;;20.33;41.58;102061.53;5045839;28;20084;-30
2022/05/04 07:25:30;;;;;;;3.97;1.40;;;;;;;20.73;40.57;102065.81;5046476;28;20044;-33
2022/05/04 07:27:59;;;;;;;5.40;1.80;;;;;;;21.15;39.58;102057.44;5063314;28;20144;-38
2022/05/04 07:30:26;;;;;;;3.42;1.08;;;;;;;21.42;38.87;102058.97;5045723;28;20050;-32
2022/05/04 07:32:54;;;;;;;5.10;1.65;;;;;;;21.61;38.25;102065.84;5048131;28;20522;-35
2022/05/04 07:35:23;;;;;;;5.20;1.25;;;;;;;21.95;37.48;102059.09;5045126;28;20137;-36
2022/05/04 07:37:51;;;;;;;4.53;1.77;;;;;;;22.32;36.79;102056.44;5039180;28;20049;-38
2022/05/04 07:43:04;;;;;;;4.85;1.17;;;;;;;23.22;35.43;102062.06;5040063;28;20053;-35
2022/05/04 07:45:32;;;;;;;3.58;1.15;;;;;;;23.30;34.11;102057.44;5044156;28;20054;-35
2022/05/04 07:48:00;;;;;;;3.67;1.23;;;;;;;22.91;34.41;102056.13;5052919;28;20045;-39
2022/05/04 07:50:29;;;;;;;5.07;1.50;;;;;;;22.47;34.63;102058.59;5044785;28;20491;-33
2022/05/04 07:52:57;;;;;;;4.63;1.23;;;;;;;22.50;35.00;102066.44;5051970;28;20080;-36
2022/05/04 07:55:25;;;;;;;5.40;1.52;;;;;;;22.69;34.75;102072.41;5044660;28;20406;-36
2022/05/04 07:57:53;;;;;;;3.47;1.20;;;;;;;23.08;34.47;102060.75;5052802;28;20539;-36
2022/05/04 08:05:56;;;;;;;4.35;1.15;;;;;;;23.94;32.78;102068.03;5044053;28;20040;-34
2022/05/04 08:08:24;;;;;;;4.70;1.55;;;;;;;24.20;32.41;102068.38;5052829;28;20045;-37
2022/05/04 08:10:52;;;;;;;5.03;1.25;;;;;;;24.59;31.72;102080.13;5044751;28;20052;-37
2022/05/04 08:13:20;;;;;;;4.75;1.27;;;;;;;24.92;31.42;102072.06;5048510;28;20057;-37
2022/05/04 08:15:48;;;;;;;3.60;1.00;;;;;;;25.15;30.61;102068.59;5071690;28;20055;-31
2022/05/04 08:18:16;;;;;;;3.60;0.95;;;;;;;25.22;30.66;102063.88;5071993;28;20079;-30
2022/05/04 08:20:44;;;;;;;4.30;1.27;;;;;;;25.43;30.22;102063.56;5074373;28;20067;-36
2022/05/04 08:23:14;;;;;;;3.45;1.05;;;;;;;25.44;30.52;102062.38;5074860;28;20063;-34
2022/05/04 08:25:41;;;;;;;5.10;1.30;;;;;;;25.25;29.66;102063.13;5074797;28;20055;-29
2022/05/04 08:28:12;;;;;;;4.90;1.10;;;;;;;24.53;31.11;102056.75;5073768;28;20044;-25
2022/05/04 08:30:40;;;;;;;3.67;1.30;;;;;;;24.41;30.95;102061.66;5075143;28;20472;-31
2022/05/04 08:33:08;;;;;;;5.80;1.30;;;;;;;24.51;30.87;102064.84;5074465;28;20062;-30
2022/05/04 08:35:36;;;;;;;4.07;1.20;;;;;;;24.83;30.33;102065.69;5073915;28;20115;-35
2022/05/04 08:38:04;;;;;;;4.13;1.10;;;;;;;25.01;30.21;102057.63;5074012;28;20525;-37
2022/05/04 08:40:34;;;;;;;4.40;1.20;;;;;;;25.29;29.50;102063.22;5073534;28;20049;-28
2022/05/04 08:43:05;;;;;;;4.70;1.20;;;;;;;25.61;30.28;102061.97;5073270;28;20132;-29
2022/05/04 08:45:36;;;;;;;;;;;;;;;25.95;27.69;102062.34;5073890;28;20170;-29
2022/05/04 08:48:05;;;;;;;4.35;1.55;;;;;;;25.92;29.91;102063.09;5072694;28;20047;-34
2022/05/04 08:50:34;;;;;;;3.95;1.10;;;;;;;25.98;29.17;102064.47;5073174;28;20053;-29
2022/05/04 08:53:03;;;;;;;5.47;1.38;;;;;;;26.14;29.08;102065.22;5073064;28;20127;-33
2022/05/04 08:55:31;;;;;;;3.22;1.02;;;;;;;26.00;28.80;102067.75;5072499;28;20456;-36
2022/05/04 08:58:00;;;;;;;3.15;1.20;;;;;;;25.73;29.32;102063.91;5071507;28;20056;-29
2022/05/04 09:00:28;;;;;;;3.85;1.23;;;;;;;25.43;29.50;102069.28;5073218;28;20059;-29
2022/05/04 09:02:55;;;;;;;4.13;1.20;;;;;;;25.53;29.20;102068.72;5072237;28;20045;-36
2022/05/04 09:05:25;;;;;;;3.90;1.00;;;;;;;25.83;29.15;102069.03;5073143;28;20056;-31
2022/05/04 09:07:54;;;;;;;4.05;1.10;;;;;;;25.91;28.78;102062.28;5072866;28;20072;-35
2022/05/04 09:10:24;;;;;;;4.57;1.52;;;;;;;25.60;29.24;102060.31;5070859;28;20059;-36
2022/05/04 09:12:54;;;;;;;3.65;1.00;;;;;;;25.74;28.56;102063.53;5072704;28;20060;-40
2022/05/04 09:15:26;;;;;;;3.88;1.30;;;;;;;25.35;29.19;102064.63;5072849;28;20076;-30
2022/05/04 09:17:59;;;;;;;4.28;1.23;;;;;;;25.16;29.96;102065.38;5072228;28;20054;-31
2022/05/04 09:23:12;;;;;;;3.47;1.10;;;;;;;25.52;29.22;102064.22;5068886;28;20498;-32
2022/05/04 09:25:40;;;;;;;4.45;1.30;;;;;;;25.98;28.63;102053.03;5072220;28;20048;-34
2022/05/04 09:28:12;;;;;;;4.80;1.25;;;;;;;26.43;27.55;102049.47;5072638;28;20084;-36
2022/05/04 09:30:45;;;;;;;4.57;1.23;;;;;;;26.75;26.87;102045.19;5070720;28;20048;-32
2022/05/04 09:33:17;;;;;;;4.18;1.50;;;;;;;27.05;26.53;102053.09;5072473;28;20178;-34
2022/05/04 09:35:46;;;;;;;6.05;1.55;;;;;;;26.94;26.62;102047.19;5072591;28;20060;-36
2022/05/04 09:46:42;;;;;;;4.13;1.20;;;;;;;27.29;26.07;102044.09;5072085;28;20063;-40
2022/05/04 09:49:11;;;;;;;4.45;1.42;;;;;;;27.36;25.52;102049.13;5072400;28;20079;-30
2022/05/04 09:51:41;;;;;;;4.25;1.17;;;;;;;27.29;26.04;102044.09;5071714;28;20044;-34
2022/05/04 09:54:22;;;;;;;2.75;0.98;;;;;;;27.33;26.12;102047.03;5073022;28;20497;-31
2022/05/04 09:56:52;;;;;;;4.72;1.10;;;;;;;27.31;26.30;102041.66;5073124;28;20509;-31
2022/05/04 09:59:21;;;;;;;4.18;1.30;;;;;;;27.48;25.86;102045.19;5072215;28;20044;-31
2022/05/04 10:01:51;;;;;;;4.25;1.30;;;;;;;27.55;26.42;102043.28;5072846;28;20034;-30
2022/05/04 10:04:20;;;;;;;4.00;1.27;;;;;;;27.58;27.21;102027.38;5073128;28;20504;-29
2022/05/04 10:06:49;;;;;;;5.13;1.80;;;;;;;27.68;26.96;102036.09;5072209;28;20459;-28
2022/05/04 10:09:18;;;;;;;5.00;1.30;;;;;;;27.71;27.09;102029.59;5072808;28;20049;-29
2022/05/04 10:11:47;;;;;;;6.07;1.45;;;;;;;27.61;26.67;102027.38;5072513;28;20040;-33
2022/05/04 10:14:16;;;;;;;4.13;1.40;;;;;;;27.32;26.74;102016.69;5071657;28;20052;-34
2022/05/04 10:16:53;;;;;;;3.80;1.20;;;;;;;27.06;26.54;102020.38;5072762;28;20049;-33
2022/05/04 10:19:25;;;;;;;4.18;1.27;;;;;;;26.76;27.42;102021.06;5072016;28;20138;-41
2022/05/04 10:21:56;;;;;;;3.88;1.08;;;;;;;26.49;27.69;102015.66;5072651;28;20497;-31
2022/05/04 10:24:28;;;;;;;4.22;1.40;;;;;;;26.51;27.70;102013.22;5072956;28;20040;-31
2022/05/04 10:27:02;;;;;;;5.28;1.23;;;;;;;26.61;27.32;102016.28;5071693;28;20051;-31
2022/05/04 10:32:32;;;;;;;3.13;1.10;;;;;;;26.35;26.68;102017.03;5072593;28;20074;-30
2022/05/04 10:35:20;;;;;;;4.07;1.38;;;;;;;26.28;26.17;102016.84;5071604;28;20067;-34
2022/05/04 10:38:07;;;;;;;3.80;1.13;;;;;;;26.12;26.77;102019.00;5072258;28;20048;-34
2022/05/04 10:40:37;;;;;;;3.35;1.17;;;;;;;25.92;27.42;102020.19;5070807;28;20480;-30
2022/05/04 10:43:06;;;;;;;3.83;1.27;;;;;;;25.87;27.92;102026.22;5072148;28;20059;-30
2022/05/04 10:45:36;;;;;;;4.68;1.30;;;;;;;25.73;27.96;102016.13;5072066;28;20052;-29
2022/05/04 10:48:31;;;;;;;3.78;1.10;;;;;;;25.52;26.71;102023.38;5071203;28;20502;-34
2022/05/04 10:51:04;;;;;;;3.50;1.05;;;;;;;25.28;28.54;102019.53;5072292;28;20055;-31
2022/05/04 10:53:41;;;;;;;3.95;1.23;;;;;;;25.33;28.48;102012.72;5071998;28;20048;-29
2022/05/04 10:56:12;;;;;;;3.58;1.05;;;;;;;24.97;28.76;102014.72;5071335;28;20055;-37
2022/05/04 10:58:44;;;;;;;5.72;1.33;;;;;;;24.72;28.86;102011.19;5072278;28;20076;-35
2022/05/04 11:01:17;;;;;;;3.53;1.13;;;;;;;24.41;29.75;102005.44;5072274;28;20055;-31
2022/05/04 11:04:07;;;;;;;4.22;1.40;;;;;;;24.54;30.25;102015.59;5071458;28;20064;-32
2022/05/04 11:06:36;;;;;;;2.70;0.88;;;;;;;24.60;29.76;102008.41;5071552;28;20219;-32
2022/05/04 11:09:06;;;;;;;2.55;1.10;;;;;;;24.69;30.07;102003.34;5071150;28;20497;-28
2022/05/04 11:11:35;;;;;;;3.55;1.33;;;;;;;24.81;30.04;102013.00;5071507;28;20044;-35
2022/05/04 11:14:03;;;;;;;3.35;1.05;;;;;;;24.83;30.01;102002.88;5071923;28;20054;-31
2022/05/04 11:16:32;;;;;;;3.35;1.10;;;;;;;24.80;29.92;102017.88;5071071;28;20051;-30
2022/05/04 11:19:00;;;;;;;4.90;1.10;;;;;;;24.75;30.09;102017.34;5071710;28;20055;-29
2022/05/04 11:21:30;;;;;;;1.98;0.80;;;;;;;24.69;29.81;102017.63;5071057;28;20486;-29
2022/05/04 11:24:00;;;;;;;3.63;1.43;;;;;;;24.70;30.11;102015.59;5070854;28;20127;-31
2022/05/04 11:26:35;;;;;;;3.63;1.10;;;;;;;24.64;29.88;102014.22;5071972;28;20039;-29
2022/05/04 11:29:07;;;;;;;4.70;1.15;;;;;;;24.53;29.26;102011.09;5071789;28;20094;-29
2022/05/04 11:31:35;;;;;;;3.78;1.02;;;;;;;24.44;29.48;102012.44;5069579;28;20056;-29
2022/05/04 11:34:03;;;;;;;3.95;1.00;;;;;;;24.35;29.83;102016.31;5070561;28;20060;-31
2022/05/04 11:36:33;;;;;;;4.05;1.10;;;;;;;24.38;29.84;102023.28;5070588;28;20426;-34
2022/05/04 11:39:03;;;;;;;4.15;1.10;;;;;;;24.14;29.93;102015.66;5071344;28;20056;-37
2022/05/04 11:41:31;;;;;;;2.38;0.95;;;;;;;24.03;30.52;102017.38;5071628;28;20095;-38
2022/05/04 11:43:59;;;;;;;4.15;1.00;;;;;;;23.94;30.43;102013.84;5069974;28;20048;-30
2022/05/04 11:46:27;;;;;;;4.40;1.20;;;;;;;23.94;30.41;102008.16;5071312;28;20059;-34
2022/05/04 11:48:58;;;;;;;5.78;1.38;;;;;;;23.81;30.65;102010.19;5071424;28;20074;-29
2022/05/04 11:51:29;;;;;;;3.38;1.42;;;;;;;23.59;30.77;102008.72;5069887;28;20139;-34
2022/05/04 11:53:58;;;;;;;4.40;1.10;;;;;;;23.30;30.99;102007.00;5071925;28;20466;-31
2022/05/04 11:56:26;;;;;;;4.15;1.30;;;;;;;23.00;31.55;102009.25;5075272;28;20059;-30
2022/05/04 11:58:54;;;;;;;2.70;1.20;;;;;;;22.95;31.65;102008.69;5074239;28;20054;-28
2022/05/04 12:01:22;;;;;;;2.50;1.02;;;;;;;22.92;31.65;102009.38;5074882;28;20049;-33
2022/05/04 12:03:51;;;;;;;3.45;1.35;;;;;;;23.08;31.37;102012.34;5074856;28;20052;-30
2022/05/04 12:06:20;;;;;;;3.13;1.10;;;;;;;23.25;31.23;102003.53;5062993;28;20041;-29
2022/05/04 12:08:48;;;;;;;2.78;0.95;;;;;;;23.33;31.22;102009.13;5048263;28;20278;-38
2022/05/04 12:11:18;;;;;;;3.42;1.20;;;;;;;23.48;30.96;102007.53;5056578;28;20056;-30
2022/05/04 12:13:46;;;;;;;3.45;1.52;;;;;;;23.34;31.34;102007.09;5045448;28;20051;-29
2022/05/04 12:16:14;;;;;;;3.42;1.13;;;;;;;23.34;31.28;102004.25;5053115;28;20100;-33